sensor_id;sensor_type;location;lat;lon;timestamp;temperature;humidity
76168;DHT22;64927;48.214;16.378;2023-06-10T00:01:42;19.60;70.20
76168;DHT22;64927;48.214;16.378;2023-06-10T00:04:13;19.60;70.30
76168;DHT22;64927;48.214;16.378;2023-06-10T00:06:39;19.60;70.20
76168;DHT22;64927;48.214;16.378;2023-06-10T00:09:05;19.60;70.20
76168;DHT22;64927;48.214;16.378;2023-06-10T00:11:33;19.60;70.40
76168;DHT22;64927;48.214;16.378;2023-06-10T00:13:59;19.50;70.30
76168;DHT22;64927;48.214;16.378;2023-06-10T00:16:25;19.50;70.60
76168;DHT22;64927;48.214;16.378;2023-06-10T00:18:54;19.40;71.20
76168;DHT22;64927;48.214;16.378;2023-06-10T00:21:33;19.40;71.20
76168;DHT22;64927;48.214;16.378;2023-06-10T00:24:08;19.40;71.40
76168;DHT22;64927;48.214;16.378;2023-06-10T00:26:39;19.40;71.40
76168;DHT22;64927;48.214;16.378;2023-06-10T00:29:05;19.40;71.30
76168;DHT22;64927;48.214;16.378;2023-06-10T00:31:31;19.40;71.50
76168;DHT22;64927;48.214;16.378;2023-06-10T00:33:59;19.40;71.30
76168;DHT22;64927;48.214;16.378;2023-06-10T00:36:25;19.40;71.30
76168;DHT22;64927;48.214;16.378;2023-06-10T00:38:53;19.40;71.10
76168;DHT22;64927;48.214;16.378;2023-06-10T00:41:19;19.40;71.10
76168;DHT22;64927;48.214;16.378;2023-06-10T00:43:45;19.40;71.20
76168;DHT22;64927;48.214;16.378;2023-06-10T00:46:11;19.40;71.30
76168;DHT22;64927;48.214;16.378;2023-06-10T00:48:38;19.40;71.20
76168;DHT22;64927;48.214;16.378;2023-06-10T00:51:05;19.30;71.20
76168;DHT22;64927;48.214;16.378;2023-06-10T00:53:34;19.40;71.20
76168;DHT22;64927;48.214;16.378;2023-06-10T00:56:03;19.40;71.10
76168;DHT22;64927;48.214;16.378;2023-06-10T00:58:29;19.30;71.20
76168;DHT22;64927;48.214;16.378;2023-06-10T01:00:55;19.20;71.30
76168;DHT22;64927;48.214;16.378;2023-06-10T01:03:21;19.30;71.40
76168;DHT22;64927;48.214;16.378;2023-06-10T01:05:53;19.30;71.50
76168;DHT22;64927;48.214;16.378;2023-06-10T01:08:35;19.40;71.40
76168;DHT22;64927;48.214;16.378;2023-06-10T01:11:05;19.40;71.30
76168;DHT22;64927;48.214;16.378;2023-06-10T01:13:36;19.40;71.60
76168;DHT22;64927;48.214;16.378;2023-06-10T01:16:04;19.50;71.40
76168;DHT22;64927;48.214;16.378;2023-06-10T01:18:31;19.40;71.20
76168;DHT22;64927;48.214;16.378;2023-06-10T01:20:57;19.50;71.10
76168;DHT22;64927;48.214;16.378;2023-06-10T01:23:23;19.60;70.80
76168;DHT22;64927;48.214;16.378;2023-06-10T01:26:15;19.60;70.80
76168;DHT22;64927;48.214;16.378;2023-06-10T01:28:48;19.60;71.00
76168;DHT22;64927;48.214;16.378;2023-06-10T01:31:21;19.60;71.30
76168;DHT22;64927;48.214;16.378;2023-06-10T01:33:52;19.70;71.10
76168;DHT22;64927;48.214;16.378;2023-06-10T01:36:19;19.70;71.20
76168;DHT22;64927;48.214;16.378;2023-06-10T01:38:50;19.80;71.20
76168;DHT22;64927;48.214;16.378;2023-06-10T01:41:17;19.70;71.00
76168;DHT22;64927;48.214;16.378;2023-06-10T01:43:44;19.80;70.90
76168;DHT22;64927;48.214;16.378;2023-06-10T01:46:10;19.80;70.90
76168;DHT22;64927;48.214;16.378;2023-06-10T01:48:37;19.80;70.90
76168;DHT22;64927;48.214;16.378;2023-06-10T01:51:04;19.80;70.90
76168;DHT22;64927;48.214;16.378;2023-06-10T01:53:29;19.80;70.90
76168;DHT22;64927;48.214;16.378;2023-06-10T01:55:57;19.80;70.90
76168;DHT22;64927;48.214;16.378;2023-06-10T01:58:23;19.90;70.70
76168;DHT22;64927;48.214;16.378;2023-06-10T02:00:49;19.90;70.70
76168;DHT22;64927;48.214;16.378;2023-06-10T02:03:14;20.00;70.70
76168;DHT22;64927;48.214;16.378;2023-06-10T02:05:40;19.90;70.60
76168;DHT22;64927;48.214;16.378;2023-06-10T02:08:06;20.00;70.60
76168;DHT22;64927;48.214;16.378;2023-06-10T02:10:31;20.00;70.70
76168;DHT22;64927;48.214;16.378;2023-06-10T02:12:57;19.90;70.90
76168;DHT22;64927;48.214;16.378;2023-06-10T02:15:23;19.90;71.20
76168;DHT22;64927;48.214;16.378;2023-06-10T02:17:48;19.90;71.00
76168;DHT22;64927;48.214;16.378;2023-06-10T02:20:14;20.00;70.80
76168;DHT22;64927;48.214;16.378;2023-06-10T02:22:40;20.00;70.70
76168;DHT22;64927;48.214;16.378;2023-06-10T02:25:08;20.00;70.80
76168;DHT22;64927;48.214;16.378;2023-06-10T02:27:34;19.90;71.10
76168;DHT22;64927;48.214;16.378;2023-06-10T02:30:00;19.80;71.30
76168;DHT22;64927;48.214;16.378;2023-06-10T02:32:28;19.80;71.60
76168;DHT22;64927;48.214;16.378;2023-06-10T02:34:53;19.70;71.60
76168;DHT22;64927;48.214;16.378;2023-06-10T02:37:19;19.60;72.10
76168;DHT22;64927;48.214;16.378;2023-06-10T02:39:45;19.50;72.30
76168;DHT22;64927;48.214;16.378;2023-06-10T02:42:11;19.50;72.60
76168;DHT22;64927;48.214;16.378;2023-06-10T02:44:37;19.60;72.50
76168;DHT22;64927;48.214;16.378;2023-06-10T02:47:03;19.60;72.30
76168;DHT22;64927;48.214;16.378;2023-06-10T02:49:31;19.60;72.30
76168;DHT22;64927;48.214;16.378;2023-06-10T02:51:59;19.60;72.20
76168;DHT22;64927;48.214;16.378;2023-06-10T02:54:25;19.60;72.30
76168;DHT22;64927;48.214;16.378;2023-06-10T02:56:52;19.60;72.50
76168;DHT22;64927;48.214;16.378;2023-06-10T02:59:18;19.70;72.50
76168;DHT22;64927;48.214;16.378;2023-06-10T03:01:45;19.70;72.30
76168;DHT22;64927;48.214;16.378;2023-06-10T03:04:13;19.70;72.30
76168;DHT22;64927;48.214;16.378;2023-06-10T03:06:40;19.70;72.20
76168;DHT22;64927;48.214;16.378;2023-06-10T03:09:11;19.60;72.50
76168;DHT22;64927;48.214;16.378;2023-06-10T03:11:36;19.50;72.60
76168;DHT22;64927;48.214;16.378;2023-06-10T03:14:02;19.50;72.80
76168;DHT22;64927;48.214;16.378;2023-06-10T03:16:28;19.50;72.70
76168;DHT22;64927;48.214;16.378;2023-06-10T03:18:55;19.60;72.40
76168;DHT22;64927;48.214;16.378;2023-06-10T03:21:23;19.60;72.40
76168;DHT22;64927;48.214;16.378;2023-06-10T03:23:49;19.70;72.30
76168;DHT22;64927;48.214;16.378;2023-06-10T03:26:15;19.70;72.10
76168;DHT22;64927;48.214;16.378;2023-06-10T03:28:41;19.60;72.10
76168;DHT22;64927;48.214;16.378;2023-06-10T03:31:07;19.60;72.30
76168;DHT22;64927;48.214;16.378;2023-06-10T03:33:32;19.70;72.30
76168;DHT22;64927;48.214;16.378;2023-06-10T03:35:58;19.80;71.90
76168;DHT22;64927;48.214;16.378;2023-06-10T03:38:24;19.60;72.40
76168;DHT22;64927;48.214;16.378;2023-06-10T03:40:50;19.70;72.40
76168;DHT22;64927;48.214;16.378;2023-06-10T03:43:15;19.80;72.10
76168;DHT22;64927;48.214;16.378;2023-06-10T03:45:43;19.90;71.80
76168;DHT22;64927;48.214;16.378;2023-06-10T03:48:11;19.90;71.40
76168;DHT22;64927;48.214;16.378;2023-06-10T03:50:39;19.80;71.80
76168;DHT22;64927;48.214;16.378;2023-06-10T03:53:05;19.90;72.00
76168;DHT22;64927;48.214;16.378;2023-06-10T03:55:30;20.10;71.40
76168;DHT22;64927;48.214;16.378;2023-06-10T03:57:57;20.10;71.00
76168;DHT22;64927;48.214;16.378;2023-06-10T04:00:23;20.10;70.60
76168;DHT22;64927;48.214;16.378;2023-06-10T04:02:49;20.00;71.20
76168;DHT22;64927;48.214;16.378;2023-06-10T04:05:17;20.20;70.80
76168;DHT22;64927;48.214;16.378;2023-06-10T04:07:43;20.30;70.30
76168;DHT22;64927;48.214;16.378;2023-06-10T04:10:12;20.40;69.90
76168;DHT22;64927;48.214;16.378;2023-06-10T04:12:38;20.40;70.00
76168;DHT22;64927;48.214;16.378;2023-06-10T04:15:04;20.30;70.80
76168;DHT22;64927;48.214;16.378;2023-06-10T04:17:30;20.40;70.00
76168;DHT22;64927;48.214;16.378;2023-06-10T04:19:57;20.60;69.70
76168;DHT22;64927;48.214;16.378;2023-06-10T04:22:26;20.70;69.30
76168;DHT22;64927;48.214;16.378;2023-06-10T04:24:51;20.90;68.80
76168;DHT22;64927;48.214;16.378;2023-06-10T04:27:19;20.90;68.80
76168;DHT22;64927;48.214;16.378;2023-06-10T04:29:45;21.10;67.90
76168;DHT22;64927;48.214;16.378;2023-06-10T04:32:10;21.20;67.50
76168;DHT22;64927;48.214;16.378;2023-06-10T04:34:36;21.20;67.60
76168;DHT22;64927;48.214;16.378;2023-06-10T04:37:04;21.30;67.10
76168;DHT22;64927;48.214;16.378;2023-06-10T04:39:30;21.20;66.30
76168;DHT22;64927;48.214;16.378;2023-06-10T04:41:56;21.30;66.90
76168;DHT22;64927;48.214;16.378;2023-06-10T04:44:22;21.20;67.10
76168;DHT22;64927;48.214;16.378;2023-06-10T04:46:47;21.40;66.70
76168;DHT22;64927;48.214;16.378;2023-06-10T04:49:13;21.30;66.40
76168;DHT22;64927;48.214;16.378;2023-06-10T04:51:39;21.30;66.80
76168;DHT22;64927;48.214;16.378;2023-06-10T04:54:07;21.40;66.70
76168;DHT22;64927;48.214;16.378;2023-06-10T04:56:33;21.40;66.00
76168;DHT22;64927;48.214;16.378;2023-06-10T04:58:59;21.00;67.00
76168;DHT22;64927;48.214;16.378;2023-06-10T05:01:27;21.10;67.40
76168;DHT22;64927;48.214;16.378;2023-06-10T05:03:55;21.20;67.30
76168;DHT22;64927;48.214;16.378;2023-06-10T05:06:21;21.30;66.70
76168;DHT22;64927;48.214;16.378;2023-06-10T05:08:47;21.30;66.70
76168;DHT22;64927;48.214;16.378;2023-06-10T05:11:12;21.50;66.40
76168;DHT22;64927;48.214;16.378;2023-06-10T05:13:41;21.40;66.40
76168;DHT22;64927;48.214;16.378;2023-06-10T05:16:08;21.60;66.30
76168;DHT22;64927;48.214;16.378;2023-06-10T05:18:34;21.70;65.50
76168;DHT22;64927;48.214;16.378;2023-06-10T05:21:01;21.50;65.30
76168;DHT22;64927;48.214;16.378;2023-06-10T05:23:26;21.60;65.60
76168;DHT22;64927;48.214;16.378;2023-06-10T05:25:52;21.80;65.50
76168;DHT22;64927;48.214;16.378;2023-06-10T05:28:18;21.80;64.80
76168;DHT22;64927;48.214;16.378;2023-06-10T05:30:43;21.50;66.00
76168;DHT22;64927;48.214;16.378;2023-06-10T05:33:09;21.70;65.40
76168;DHT22;64927;48.214;16.378;2023-06-10T05:35:35;21.80;65.10
76168;DHT22;64927;48.214;16.378;2023-06-10T05:38:00;21.80;65.90
76168;DHT22;64927;48.214;16.378;2023-06-10T05:40:28;21.70;65.30
76168;DHT22;64927;48.214;16.378;2023-06-10T05:42:53;21.50;65.40
76168;DHT22;64927;48.214;16.378;2023-06-10T05:45:19;21.20;66.80
76168;DHT22;64927;48.214;16.378;2023-06-10T05:47:45;21.20;66.70
76168;DHT22;64927;48.214;16.378;2023-06-10T05:50:10;21.20;66.50
76168;DHT22;64927;48.214;16.378;2023-06-10T05:52:36;21.30;66.40
76168;DHT22;64927;48.214;16.378;2023-06-10T05:55:03;21.10;66.80
76168;DHT22;64927;48.214;16.378;2023-06-10T05:57:29;21.00;68.00
76168;DHT22;64927;48.214;16.378;2023-06-10T05:59:56;20.90;67.50
76168;DHT22;64927;48.214;16.378;2023-06-10T06:02:22;20.90;68.10
76168;DHT22;64927;48.214;16.378;2023-06-10T06:04:48;20.90;67.90
76168;DHT22;64927;48.214;16.378;2023-06-10T06:07:14;20.90;67.70
76168;DHT22;64927;48.214;16.378;2023-06-10T06:09:39;20.80;68.00
76168;DHT22;64927;48.214;16.378;2023-06-10T06:12:08;20.90;68.00
76168;DHT22;64927;48.214;16.378;2023-06-10T06:14:37;20.70;68.60
76168;DHT22;64927;48.214;16.378;2023-06-10T06:17:05;20.70;68.60
76168;DHT22;64927;48.214;16.378;2023-06-10T06:19:31;20.80;68.50
76168;DHT22;64927;48.214;16.378;2023-06-10T06:21:56;20.80;68.60
76168;DHT22;64927;48.214;16.378;2023-06-10T06:24:22;20.80;68.50
76168;DHT22;64927;48.214;16.378;2023-06-10T06:26:47;20.70;68.50
76168;DHT22;64927;48.214;16.378;2023-06-10T06:29:16;20.70;68.80
76168;DHT22;64927;48.214;16.378;2023-06-10T06:31:41;20.80;68.50
76168;DHT22;64927;48.214;16.378;2023-06-10T06:34:09;20.80;68.40
76168;DHT22;64927;48.214;16.378;2023-06-10T06:36:37;20.70;68.40
76168;DHT22;64927;48.214;16.378;2023-06-10T06:39:05;20.70;68.60
76168;DHT22;64927;48.214;16.378;2023-06-10T06:41:33;20.70;69.10
76168;DHT22;64927;48.214;16.378;2023-06-10T06:44:01;20.50;69.20
76168;DHT22;64927;48.214;16.378;2023-06-10T06:46:30;20.60;69.60
76168;DHT22;64927;48.214;16.378;2023-06-10T06:48:56;20.90;68.90
76168;DHT22;64927;48.214;16.378;2023-06-10T06:51:21;20.90;68.30
76168;DHT22;64927;48.214;16.378;2023-06-10T06:53:47;21.00;68.30
76168;DHT22;64927;48.214;16.378;2023-06-10T06:56:15;21.20;67.70
76168;DHT22;64927;48.214;16.378;2023-06-10T06:58:41;21.00;67.30
76168;DHT22;64927;48.214;16.378;2023-06-10T07:01:06;21.20;67.50
76168;DHT22;64927;48.214;16.378;2023-06-10T07:03:34;21.20;67.50
76168;DHT22;64927;48.214;16.378;2023-06-10T07:06:00;21.20;66.80
76168;DHT22;64927;48.214;16.378;2023-06-10T07:08:28;21.30;67.20
76168;DHT22;64927;48.214;16.378;2023-06-10T07:10:54;21.20;66.70
76168;DHT22;64927;48.214;16.378;2023-06-10T07:13:19;21.30;66.90
76168;DHT22;64927;48.214;16.378;2023-06-10T07:15:46;21.20;66.30
76168;DHT22;64927;48.214;16.378;2023-06-10T07:18:11;21.20;66.40
76168;DHT22;64927;48.214;16.378;2023-06-10T07:20:37;21.10;66.80
76168;DHT22;64927;48.214;16.378;2023-06-10T07:23:02;21.10;66.30
76168;DHT22;64927;48.214;16.378;2023-06-10T07:25:28;21.20;67.90
76168;DHT22;64927;48.214;16.378;2023-06-10T07:27:56;21.30;66.30
76168;DHT22;64927;48.214;16.378;2023-06-10T07:30:24;21.30;66.30
76168;DHT22;64927;48.214;16.378;2023-06-10T07:32:51;21.50;66.00
76168;DHT22;64927;48.214;16.378;2023-06-10T07:35:17;21.70;65.50
76168;DHT22;64927;48.214;16.378;2023-06-10T07:37:42;21.80;64.80
76168;DHT22;64927;48.214;16.378;2023-06-10T07:40:08;21.70;64.80
76168;DHT22;64927;48.214;16.378;2023-06-10T07:42:35;21.70;65.20
76168;DHT22;64927;48.214;16.378;2023-06-10T07:45:04;21.80;64.80
76168;DHT22;64927;48.214;16.378;2023-06-10T07:47:30;21.70;64.20
76168;DHT22;64927;48.214;16.378;2023-06-10T07:49:56;21.70;64.70
76168;DHT22;64927;48.214;16.378;2023-06-10T07:52:22;21.60;65.10
76168;DHT22;64927;48.214;16.378;2023-06-10T07:54:47;21.50;65.70
76168;DHT22;64927;48.214;16.378;2023-06-10T07:57:13;21.70;65.80
76168;DHT22;64927;48.214;16.378;2023-06-10T07:59:39;21.50;65.20
76168;DHT22;64927;48.214;16.378;2023-06-10T08:02:07;21.50;65.60
76168;DHT22;64927;48.214;16.378;2023-06-10T08:04:33;21.50;65.50
76168;DHT22;64927;48.214;16.378;2023-06-10T08:07:02;21.40;66.60
76168;DHT22;64927;48.214;16.378;2023-06-10T08:09:28;21.50;65.70
76168;DHT22;64927;48.214;16.378;2023-06-10T08:11:56;21.60;65.30
76168;DHT22;64927;48.214;16.378;2023-06-10T08:14:24;21.60;65.40
76168;DHT22;64927;48.214;16.378;2023-06-10T08:16:50;21.60;65.30
76168;DHT22;64927;48.214;16.378;2023-06-10T08:19:16;21.40;66.00
76168;DHT22;64927;48.214;16.378;2023-06-10T08:21:41;21.20;66.30
76168;DHT22;64927;48.214;16.378;2023-06-10T08:24:09;21.10;66.90
76168;DHT22;64927;48.214;16.378;2023-06-10T08:26:35;21.20;66.80
76168;DHT22;64927;48.214;16.378;2023-06-10T08:29:01;21.20;67.00
76168;DHT22;64927;48.214;16.378;2023-06-10T08:31:26;21.10;66.90
76168;DHT22;64927;48.214;16.378;2023-06-10T08:33:52;21.10;67.60
76168;DHT22;64927;48.214;16.378;2023-06-10T08:36:18;21.40;67.20
76168;DHT22;64927;48.214;16.378;2023-06-10T08:38:43;21.50;66.40
76168;DHT22;64927;48.214;16.378;2023-06-10T08:41:09;21.60;65.70
76168;DHT22;64927;48.214;16.378;2023-06-10T08:43:45;21.50;67.30
76168;DHT22;64927;48.214;16.378;2023-06-10T08:46:14;21.60;66.40
76168;DHT22;64927;48.214;16.378;2023-06-10T08:48:43;21.70;65.80
76168;DHT22;64927;48.214;16.378;2023-06-10T08:51:11;21.80;65.70
76168;DHT22;64927;48.214;16.378;2023-06-10T08:53:41;22.00;65.20
76168;DHT22;64927;48.214;16.378;2023-06-10T08:56:10;21.90;64.80
76168;DHT22;64927;48.214;16.378;2023-06-10T08:58:36;21.80;64.80
76168;DHT22;64927;48.214;16.378;2023-06-10T09:01:07;21.90;65.00
76168;DHT22;64927;48.214;16.378;2023-06-10T09:03:37;22.00;64.70
76168;DHT22;64927;48.214;16.378;2023-06-10T09:06:05;22.10;64.00
76168;DHT22;64927;48.214;16.378;2023-06-10T09:08:32;22.00;64.30
76168;DHT22;64927;48.214;16.378;2023-06-10T09:10:58;22.10;63.80
76168;DHT22;64927;48.214;16.378;2023-06-10T09:13:24;22.30;63.40
76168;DHT22;64927;48.214;16.378;2023-06-10T09:15:52;22.60;64.30
76168;DHT22;64927;48.214;16.378;2023-06-10T09:18:18;23.10;61.80
76168;DHT22;64927;48.214;16.378;2023-06-10T09:20:46;23.00;61.10
76168;DHT22;64927;48.214;16.378;2023-06-10T09:23:12;23.00;61.90
76168;DHT22;64927;48.214;16.378;2023-06-10T09:25:38;23.00;61.40
76168;DHT22;64927;48.214;16.378;2023-06-10T09:28:05;23.00;60.80
76168;DHT22;64927;48.214;16.378;2023-06-10T09:30:37;23.00;61.60
76168;DHT22;64927;48.214;16.378;2023-06-10T09:33:13;23.10;60.30
76168;DHT22;64927;48.214;16.378;2023-06-10T09:35:46;23.30;60.10
76168;DHT22;64927;48.214;16.378;2023-06-10T09:38:13;23.30;59.40
76168;DHT22;64927;48.214;16.378;2023-06-10T09:40:49;23.50;60.00
76168;DHT22;64927;48.214;16.378;2023-06-10T09:43:15;23.90;59.40
76168;DHT22;64927;48.214;16.378;2023-06-10T09:45:41;24.00;58.20
76168;DHT22;64927;48.214;16.378;2023-06-10T09:48:10;24.10;57.80
76168;DHT22;64927;48.214;16.378;2023-06-10T09:50:43;24.10;58.20
76168;DHT22;64927;48.214;16.378;2023-06-10T09:53:10;24.50;57.40
76168;DHT22;64927;48.214;16.378;2023-06-10T09:55:38;24.70;56.20
76168;DHT22;64927;48.214;16.378;2023-06-10T09:58:04;24.60;55.20
76168;DHT22;64927;48.214;16.378;2023-06-10T10:00:32;24.60;54.50
76168;DHT22;64927;48.214;16.378;2023-06-10T10:02:58;24.60;55.00
76168;DHT22;64927;48.214;16.378;2023-06-10T10:05:24;24.80;56.40
76168;DHT22;64927;48.214;16.378;2023-06-10T10:07:50;24.80;54.60
76168;DHT22;64927;48.214;16.378;2023-06-10T10:10:19;24.50;54.50
76168;DHT22;64927;48.214;16.378;2023-06-10T10:12:47;24.50;55.40
76168;DHT22;64927;48.214;16.378;2023-06-10T10:15:15;24.60;54.40
76168;DHT22;64927;48.214;16.378;2023-06-10T10:17:58;24.70;55.60
76168;DHT22;64927;48.214;16.378;2023-06-10T10:20:29;25.00;54.70
76168;DHT22;64927;48.214;16.378;2023-06-10T10:22:57;25.30;53.50
76168;DHT22;64927;48.214;16.378;2023-06-10T10:25:29;25.30;53.80
76168;DHT22;64927;48.214;16.378;2023-06-10T10:28:02;25.60;52.80
76168;DHT22;64927;48.214;16.378;2023-06-10T10:30:42;25.50;52.00
76168;DHT22;64927;48.214;16.378;2023-06-10T10:35:37;25.30;53.40
76168;DHT22;64927;48.214;16.378;2023-06-10T10:38:04;25.30;53.10
76168;DHT22;64927;48.214;16.378;2023-06-10T10:40:30;25.30;53.80
76168;DHT22;64927;48.214;16.378;2023-06-10T10:42:59;25.80;52.40
76168;DHT22;64927;48.214;16.378;2023-06-10T10:45:27;26.20;51.70
76168;DHT22;64927;48.214;16.378;2023-06-10T10:47:55;26.30;50.80
76168;DHT22;64927;48.214;16.378;2023-06-10T10:50:23;25.80;50.10
76168;DHT22;64927;48.214;16.378;2023-06-10T10:53:04;25.60;52.10
76168;DHT22;64927;48.214;16.378;2023-06-10T10:55:33;25.60;52.10
76168;DHT22;64927;48.214;16.378;2023-06-10T10:58:07;25.60;52.00
76168;DHT22;64927;48.214;16.378;2023-06-10T11:00:35;25.40;52.10
76168;DHT22;64927;48.214;16.378;2023-06-10T11:03:07;25.80;54.10
76168;DHT22;64927;48.214;16.378;2023-06-10T11:05:43;25.80;51.60
76168;DHT22;64927;48.214;16.378;2023-06-10T11:11:01;26.00;51.40
76168;DHT22;64927;48.214;16.378;2023-06-10T11:13:58;26.20;51.40
76168;DHT22;64927;48.214;16.378;2023-06-10T11:16:27;26.20;50.50
76168;DHT22;64927;48.214;16.378;2023-06-10T11:18:54;26.40;50.40
76168;DHT22;64927;48.214;16.378;2023-06-10T11:21:20;26.60;48.80
76168;DHT22;64927;48.214;16.378;2023-06-10T11:23:46;26.20;50.20
76168;DHT22;64927;48.214;16.378;2023-06-10T11:26:21;25.80;50.70
76168;DHT22;64927;48.214;16.378;2023-06-10T11:31:22;25.40;51.20
76168;DHT22;64927;48.214;16.378;2023-06-10T11:33:53;25.60;50.60
76168;DHT22;64927;48.214;16.378;2023-06-10T11:36:19;25.90;49.20
76168;DHT22;64927;48.214;16.378;2023-06-10T11:38:48;26.30;49.10
76168;DHT22;64927;48.214;16.378;2023-06-10T11:41:14;26.70;49.00
76168;DHT22;64927;48.214;16.378;2023-06-10T11:43:43;26.60;48.40
76168;DHT22;64927;48.214;16.378;2023-06-10T11:46:13;26.30;48.30
76168;DHT22;64927;48.214;16.378;2023-06-10T11:48:39;26.30;49.00
76168;DHT22;64927;48.214;16.378;2023-06-10T11:51:13;26.30;49.30
76168;DHT22;64927;48.214;16.378;2023-06-10T11:53:39;25.80;49.80
76168;DHT22;64927;48.214;16.378;2023-06-10T11:56:04;25.70;50.40
76168;DHT22;64927;48.214;16.378;2023-06-10T11:58:30;25.80;50.10
76168;DHT22;64927;48.214;16.378;2023-06-10T12:00:56;26.00;49.80
76168;DHT22;64927;48.214;16.378;2023-06-10T12:03:27;25.80;49.80
76168;DHT22;64927;48.214;16.378;2023-06-10T12:06:05;25.70;49.90
76168;DHT22;64927;48.214;16.378;2023-06-10T12:08:41;25.80;49.50
76168;DHT22;64927;48.214;16.378;2023-06-10T12:11:10;26.20;50.20
76168;DHT22;64927;48.214;16.378;2023-06-10T12:13:46;26.60;48.70
76168;DHT22;64927;48.214;16.378;2023-06-10T12:16:15;26.90;47.70
76168;DHT22;64927;48.214;16.378;2023-06-10T12:18:43;26.90;47.60
76168;DHT22;64927;48.214;16.378;2023-06-10T12:21:24;27.00;47.40
76168;DHT22;64927;48.214;16.378;2023-06-10T12:24:10;27.20;47.40
76168;DHT22;64927;48.214;16.378;2023-06-10T12:26:40;27.20;46.20
76168;DHT22;64927;48.214;16.378;2023-06-10T12:32:02;26.90;46.60
76168;DHT22;64927;48.214;16.378;2023-06-10T12:34:39;26.60;47.40
76168;DHT22;64927;48.214;16.378;2023-06-10T12:37:09;26.30;48.30
76168;DHT22;64927;48.214;16.378;2023-06-10T12:39:39;25.90;49.40
76168;DHT22;64927;48.214;16.378;2023-06-10T12:42:08;25.80;50.20
76168;DHT22;64927;48.214;16.378;2023-06-10T12:44:38;25.60;52.60
76168;DHT22;64927;48.214;16.378;2023-06-10T12:47:11;24.70;58.40
76168;DHT22;64927;48.214;16.378;2023-06-10T12:49:39;24.10;63.10
76168;DHT22;64927;48.214;16.378;2023-06-10T12:52:05;23.80;63.60
76168;DHT22;64927;48.214;16.378;2023-06-10T12:54:31;23.30;64.20
76168;DHT22;64927;48.214;16.378;2023-06-10T12:56:57;23.00;66.90
76168;DHT22;64927;48.214;16.378;2023-06-10T12:59:23;22.90;66.20
76168;DHT22;64927;48.214;16.378;2023-06-10T13:01:53;23.00;66.60
76168;DHT22;64927;48.214;16.378;2023-06-10T13:04:19;23.00;68.50
76168;DHT22;64927;48.214;16.378;2023-06-10T13:06:45;23.10;66.40
76168;DHT22;64927;48.214;16.378;2023-06-10T13:09:15;23.50;67.70
76168;DHT22;64927;48.214;16.378;2023-06-10T13:11:41;23.70;66.50
76168;DHT22;64927;48.214;16.378;2023-06-10T13:14:08;23.70;66.40
76168;DHT22;64927;48.214;16.378;2023-06-10T13:16:33;24.20;66.30
76168;DHT22;64927;48.214;16.378;2023-06-10T13:19:01;24.50;65.40
76168;DHT22;64927;48.214;16.378;2023-06-10T13:21:28;24.60;62.80
76168;DHT22;64927;48.214;16.378;2023-06-10T13:23:53;24.80;62.40
76168;DHT22;64927;48.214;16.378;2023-06-10T13:26:19;24.80;62.10
76168;DHT22;64927;48.214;16.378;2023-06-10T13:28:45;24.80;61.40
76168;DHT22;64927;48.214;16.378;2023-06-10T13:31:11;24.90;62.20
76168;DHT22;64927;48.214;16.378;2023-06-10T13:33:37;24.90;61.70
76168;DHT22;64927;48.214;16.378;2023-06-10T13:36:03;24.80;61.60
76168;DHT22;64927;48.214;16.378;2023-06-10T13:38:28;24.80;61.10
76168;DHT22;64927;48.214;16.378;2023-06-10T13:40:54;24.60;60.30
76168;DHT22;64927;48.214;16.378;2023-06-10T13:43:19;24.50;60.60
76168;DHT22;64927;48.214;16.378;2023-06-10T13:45:45;24.30;61.40
76168;DHT22;64927;48.214;16.378;2023-06-10T13:48:11;24.40;61.10
76168;DHT22;64927;48.214;16.378;2023-06-10T13:50:38;24.50;61.60
76168;DHT22;64927;48.214;16.378;2023-06-10T13:53:04;24.70;61.50
76168;DHT22;64927;48.214;16.378;2023-06-10T13:55:30;24.50;60.70
76168;DHT22;64927;48.214;16.378;2023-06-10T13:57:55;24.50;60.20
76168;DHT22;64927;48.214;16.378;2023-06-10T14:00:23;24.70;61.40
76168;DHT22;64927;48.214;16.378;2023-06-10T14:02:50;24.60;61.30
76168;DHT22;64927;48.214;16.378;2023-06-10T14:05:16;24.20;63.30
76168;DHT22;64927;48.214;16.378;2023-06-10T14:07:44;24.10;63.40
76168;DHT22;64927;48.214;16.378;2023-06-10T14:10:09;24.10;63.60
76168;DHT22;64927;48.214;16.378;2023-06-10T14:12:35;24.30;64.80
76168;DHT22;64927;48.214;16.378;2023-06-10T14:15:01;24.40;65.10
76168;DHT22;64927;48.214;16.378;2023-06-10T14:17:29;24.60;64.30
76168;DHT22;64927;48.214;16.378;2023-06-10T14:19:54;24.50;62.40
76168;DHT22;64927;48.214;16.378;2023-06-10T14:22:20;24.50;62.10
76168;DHT22;64927;48.214;16.378;2023-06-10T14:24:46;24.50;62.00
76168;DHT22;64927;48.214;16.378;2023-06-10T14:27:12;24.60;61.50
76168;DHT22;64927;48.214;16.378;2023-06-10T14:29:38;24.90;62.80
76168;DHT22;64927;48.214;16.378;2023-06-10T14:32:04;24.90;61.90
76168;DHT22;64927;48.214;16.378;2023-06-10T14:34:32;25.00;60.80
76168;DHT22;64927;48.214;16.378;2023-06-10T14:36:59;25.00;60.20
76168;DHT22;64927;48.214;16.378;2023-06-10T14:39:25;25.10;60.30
76168;DHT22;64927;48.214;16.378;2023-06-10T14:41:53;25.00;59.10
76168;DHT22;64927;48.214;16.378;2023-06-10T14:44:19;25.00;58.90
76168;DHT22;64927;48.214;16.378;2023-06-10T14:46:45;25.30;60.60
76168;DHT22;64927;48.214;16.378;2023-06-10T14:49:10;25.50;58.90
76168;DHT22;64927;48.214;16.378;2023-06-10T14:51:36;25.60;57.10
76168;DHT22;64927;48.214;16.378;2023-06-10T14:54:04;25.70;56.60
76168;DHT22;64927;48.214;16.378;2023-06-10T14:56:29;25.60;57.60
76168;DHT22;64927;48.214;16.378;2023-06-10T14:58:57;25.50;56.60
76168;DHT22;64927;48.214;16.378;2023-06-10T15:01:23;25.60;57.90
76168;DHT22;64927;48.214;16.378;2023-06-10T15:03:48;25.60;56.20
76168;DHT22;64927;48.214;16.378;2023-06-10T15:06:14;25.60;55.30
76168;DHT22;64927;48.214;16.378;2023-06-10T15:08:42;25.50;56.10
76168;DHT22;64927;48.214;16.378;2023-06-10T15:11:08;25.40;56.90
76168;DHT22;64927;48.214;16.378;2023-06-10T15:13:33;25.60;57.30
76168;DHT22;64927;48.214;16.378;2023-06-10T15:15:59;25.80;56.60
76168;DHT22;64927;48.214;16.378;2023-06-10T15:18:27;26.00;56.80
76168;DHT22;64927;48.214;16.378;2023-06-10T15:20:53;26.10;54.00
76168;DHT22;64927;48.214;16.378;2023-06-10T15:23:18;25.90;55.00
76168;DHT22;64927;48.214;16.378;2023-06-10T15:25:46;25.90;55.20
76168;DHT22;64927;48.214;16.378;2023-06-10T15:28:12;25.80;55.70